sensor_id;sensor_type;location;lat;lon;timestamp;P1;durP1;ratioP1;P2;durP2;ratioP2
67595;SDS011;54410;48.694;8.934;2023-01-09T00:01:41;3.57;;;3.00;;
67595;SDS011;54410;48.694;8.934;2023-01-09T00:04:07;3.13;;;2.83;;
67595;SDS011;54410;48.694;8.934;2023-01-09T00:06:34;3.37;;;2.97;;
67595;SDS011;54410;48.694;8.934;2023-01-09T00:09:00;2.90;;;2.63;;
67595;SDS011;54410;48.694;8.934;2023-01-09T00:11:26;4.43;;;3.17;;
67595;SDS011;54410;48.694;8.934;2023-01-09T00:13:52;3.53;;;2.80;;
67595;SDS011;54410;48.694;8.934;2023-01-09T00:16:18;3.63;;;2.83;;
67595;SDS011;54410;48.694;8.934;2023-01-09T00:18:44;3.67;;;3.13;;
67595;SDS011;54410;48.694;8.934;2023-01-09T00:21:11;4.17;;;3.03;;
67595;SDS011;54410;48.694;8.934;2023-01-09T00:23:37;3.80;;;2.60;;
67595;SDS011;54410;48.694;8.934;2023-01-09T00:26:04;3.33;;;2.63;;
67595;SDS011;54410;48.694;8.934;2023-01-09T00:28:31;4.40;;;3.27;;
67595;SDS011;54410;48.694;8.934;2023-01-09T00:30:57;3.43;;;2.93;;
67595;SDS011;54410;48.694;8.934;2023-01-09T00:33:37;4.47;;;2.80;;
67595;SDS011;54410;48.694;8.934;2023-01-09T00:36:04;2.80;;;2.50;;
67595;SDS011;54410;48.694;8.934;2023-01-09T00:38:30;3.27;;;2.60;;
67595;SDS011;54410;48.694;8.934;2023-01-09T00:40:56;3.57;;;3.27;;
67595;SDS011;54410;48.694;8.934;2023-01-09T00:43:23;4.93;;;2.67;;
67595;SDS011;54410;48.694;8.934;2023-01-09T00:45:51;2.93;;;2.30;;
67595;SDS011;54410;48.694;8.934;2023-01-09T00:48:17;2.10;;;1.90;;
67595;SDS011;54410;48.694;8.934;2023-01-09T00:50:51;2.50;;;2.00;;
67595;SDS011;54410;48.694;8.934;2023-01-09T00:53:17;2.00;;;1.80;;
67595;SDS011;54410;48.694;8.934;2023-01-09T00:55:45;2.33;;;1.87;;
67595;SDS011;54410;48.694;8.934;2023-01-09T00:58:10;2.63;;;1.60;;
67595;SDS011;54410;48.694;8.934;2023-01-09T01:00:36;1.33;;;1.23;;
67595;SDS011;54410;48.694;8.934;2023-01-09T01:03:02;1.40;;;1.20;;
67595;SDS011;54410;48.694;8.934;2023-01-09T01:05:28;1.50;;;1.40;;
67595;SDS011;54410;48.694;8.934;2023-01-09T01:08:13;1.13;;;1.03;;
67595;SDS011;54410;48.694;8.934;2023-01-09T01:10:40;0.97;;;0.90;;
67595;SDS011;54410;48.694;8.934;2023-01-09T01:13:06;1.57;;;1.30;;
67595;SDS011;54410;48.694;8.934;2023-01-09T01:15:33;1.17;;;1.07;;
67595;SDS011;54410;48.694;8.934;2023-01-09T01:17:59;1.10;;;1.00;;
67595;SDS011;54410;48.694;8.934;2023-01-09T01:20:25;1.17;;;1.07;;
67595;SDS011;54410;48.694;8.934;2023-01-09T01:22:51;1.00;;;1.00;;
67595;SDS011;54410;48.694;8.934;2023-01-09T01:25:17;0.80;;;0.80;;
67595;SDS011;54410;48.694;8.934;2023-01-09T01:27:43;0.80;;;0.80;;
67595;SDS011;54410;48.694;8.934;2023-01-09T01:30:10;0.90;;;0.90;;
67595;SDS011;54410;48.694;8.934;2023-01-09T01:32:37;0.70;;;0.70;;
67595;SDS011;54410;48.694;8.934;2023-01-09T01:35:04;0.90;;;0.90;;
67595;SDS011;54410;48.694;8.934;2023-01-09T01:37:30;0.80;;;0.80;;
67595;SDS011;54410;48.694;8.934;2023-01-09T01:39:56;1.00;;;0.97;;
67595;SDS011;54410;48.694;8.934;2023-01-09T01:42:23;0.80;;;0.80;;
67595;SDS011;54410;48.694;8.934;2023-01-09T01:45:08;1.53;;;1.10;;
67595;SDS011;54410;48.694;8.934;2023-01-09T01:47:43;0.87;;;0.87;;
67595;SDS011;54410;48.694;8.934;2023-01-09T01:50:22;1.03;;;0.93;;
67595;SDS011;54410;48.694;8.934;2023-01-09T01:52:51;1.20;;;1.10;;
67595;SDS011;54410;48.694;8.934;2023-01-09T01:55:18;1.20;;;1.10;;
67595;SDS011;54410;48.694;8.934;2023-01-09T01:57:45;1.10;;;0.87;;
67595;SDS011;54410;48.694;8.934;2023-01-09T02:00:11;1.23;;;1.13;;
67595;SDS011;54410;48.694;8.934;2023-01-09T02:02:38;1.10;;;1.00;;
67595;SDS011;54410;48.694;8.934;2023-01-09T02:05:04;1.03;;;1.00;;
67595;SDS011;54410;48.694;8.934;2023-01-09T02:07:30;1.27;;;1.17;;
67595;SDS011;54410;48.694;8.934;2023-01-09T02:09:55;1.10;;;1.00;;
67595;SDS011;54410;48.694;8.934;2023-01-09T02:12:22;1.60;;;1.17;;
67595;SDS011;54410;48.694;8.934;2023-01-09T02:15:05;1.80;;;1.10;;
67595;SDS011;54410;48.694;8.934;2023-01-09T02:31:31;1.57;;;1.30;;
67595;SDS011;54410;48.694;8.934;2023-01-09T02:39:22;1.37;;;1.27;;
67595;SDS011;54410;48.694;8.934;2023-01-09T02:41:54;2.17;;;1.60;;
67595;SDS011;54410;48.694;8.934;2023-01-09T02:44:24;0.93;;;0.93;;
67595;SDS011;54410;48.694;8.934;2023-01-09T02:47:07;1.87;;;1.27;;
67595;SDS011;54410;48.694;8.934;2023-01-09T02:49:33;1.20;;;1.10;;
67595;SDS011;54410;48.694;8.934;2023-01-09T02:59:20;0.97;;;0.73;;
67595;SDS011;54410;48.694;8.934;2023-01-09T03:09:37;0.57;;;0.57;;
67595;SDS011;54410;48.694;8.934;2023-01-09T03:12:12;0.57;;;0.57;;
67595;SDS011;54410;48.694;8.934;2023-01-09T03:14:47;0.40;;;0.40;;
67595;SDS011;54410;48.694;8.934;2023-01-09T03:17:14;1.37;;;1.10;;
67595;SDS011;54410;48.694;8.934;2023-01-09T03:19:43;0.60;;;0.60;;
67595;SDS011;54410;48.694;8.934;2023-01-09T03:22:10;0.40;;;0.40;;
67595;SDS011;54410;48.694;8.934;2023-01-09T03:24:36;0.40;;;0.40;;
67595;SDS011;54410;48.694;8.934;2023-01-09T03:27:04;0.47;;;0.40;;
67595;SDS011;54410;48.694;8.934;2023-01-09T03:29:31;0.30;;;0.30;;
67595;SDS011;54410;48.694;8.934;2023-01-09T03:31:57;2.33;;;0.40;;
67595;SDS011;54410;48.694;8.934;2023-01-09T03:34:22;0.33;;;0.33;;
67595;SDS011;54410;48.694;8.934;2023-01-09T03:36:48;0.40;;;0.40;;
67595;SDS011;54410;48.694;8.934;2023-01-09T03:39:14;0.40;;;0.40;;
67595;SDS011;54410;48.694;8.934;2023-01-09T03:41:40;0.30;;;0.30;;
67595;SDS011;54410;48.694;8.934;2023-01-09T03:44:06;0.30;;;0.30;;
67595;SDS011;54410;48.694;8.934;2023-01-09T03:46:32;0.40;;;0.40;;
67595;SDS011;54410;48.694;8.934;2023-01-09T03:48:58;0.30;;;0.30;;
67595;SDS011;54410;48.694;8.934;2023-01-09T03:51:24;0.47;;;0.47;;
67595;SDS011;54410;48.694;8.934;2023-01-09T03:53:50;0.30;;;0.30;;
67595;SDS011;54410;48.694;8.934;2023-01-09T03:56:16;0.23;;;0.23;;
67595;SDS011;54410;48.694;8.934;2023-01-09T03:58:42;0.30;;;0.30;;
67595;SDS011;54410;48.694;8.934;2023-01-09T04:01:08;0.30;;;0.30;;
67595;SDS011;54410;48.694;8.934;2023-01-09T04:03:36;0.27;;;0.27;;
67595;SDS011;54410;48.694;8.934;2023-01-09T04:06:03;0.30;;;0.30;;
67595;SDS011;54410;48.694;8.934;2023-01-09T04:08:29;0.20;;;0.20;;
67595;SDS011;54410;48.694;8.934;2023-01-09T04:10:55;0.30;;;0.30;;
67595;SDS011;54410;48.694;8.934;2023-01-09T04:13:21;0.80;;;0.30;;
67595;SDS011;54410;48.694;8.934;2023-01-09T04:15:47;0.27;;;0.27;;
67595;SDS011;54410;48.694;8.934;2023-01-09T04:18:13;0.27;;;0.27;;
67595;SDS011;54410;48.694;8.934;2023-01-09T04:20:39;0.67;;;0.30;;
67595;SDS011;54410;48.694;8.934;2023-01-09T04:23:05;0.30;;;0.30;;
67595;SDS011;54410;48.694;8.934;2023-01-09T04:25:31;0.30;;;0.30;;
67595;SDS011;54410;48.694;8.934;2023-01-09T04:27:57;0.20;;;0.20;;
67595;SDS011;54410;48.694;8.934;2023-01-09T04:30:23;0.40;;;0.40;;
67595;SDS011;54410;48.694;8.934;2023-01-09T04:32:49;0.30;;;0.30;;
67595;SDS011;54410;48.694;8.934;2023-01-09T04:35:16;0.20;;;0.20;;
67595;SDS011;54410;48.694;8.934;2023-01-09T04:37:42;0.20;;;0.20;;
67595;SDS011;54410;48.694;8.934;2023-01-09T04:40:08;0.30;;;0.30;;
67595;SDS011;54410;48.694;8.934;2023-01-09T04:42:35;0.33;;;0.33;;
67595;SDS011;54410;48.694;8.934;2023-01-09T04:45:01;0.30;;;0.30;;
67595;SDS011;54410;48.694;8.934;2023-01-09T04:47:27;0.50;;;0.50;;
67595;SDS011;54410;48.694;8.934;2023-01-09T04:49:55;0.20;;;0.20;;
67595;SDS011;54410;48.694;8.934;2023-01-09T04:52:21;0.37;;;0.37;;
67595;SDS011;54410;48.694;8.934;2023-01-09T04:54:47;0.43;;;0.43;;
67595;SDS011;54410;48.694;8.934;2023-01-09T04:57:13;0.37;;;0.37;;
67595;SDS011;54410;48.694;8.934;2023-01-09T04:59:39;0.40;;;0.40;;
67595;SDS011;54410;48.694;8.934;2023-01-09T05:02:05;0.40;;;0.40;;
67595;SDS011;54410;48.694;8.934;2023-01-09T05:04:31;0.40;;;0.40;;
67595;SDS011;54410;48.694;8.934;2023-01-09T05:06:57;0.40;;;0.40;;
67595;SDS011;54410;48.694;8.934;2023-01-09T05:09:23;0.40;;;0.40;;
67595;SDS011;54410;48.694;8.934;2023-01-09T05:11:49;0.40;;;0.40;;
67595;SDS011;54410;48.694;8.934;2023-01-09T05:14:15;3.50;;;0.50;;
67595;SDS011;54410;48.694;8.934;2023-01-09T05:16:41;0.50;;;0.50;;
67595;SDS011;54410;48.694;8.934;2023-01-09T05:19:06;0.40;;;0.40;;
67595;SDS011;54410;48.694;8.934;2023-01-09T05:21:32;2.00;;;0.67;;
67595;SDS011;54410;48.694;8.934;2023-01-09T05:23:58;1.70;;;0.50;;
67595;SDS011;54410;48.694;8.934;2023-01-09T05:26:24;0.93;;;0.50;;
67595;SDS011;54410;48.694;8.934;2023-01-09T05:28:51;1.53;;;0.40;;
67595;SDS011;54410;48.694;8.934;2023-01-09T05:31:18;0.40;;;0.40;;
67595;SDS011;54410;48.694;8.934;2023-01-09T05:33:44;0.50;;;0.50;;
67595;SDS011;54410;48.694;8.934;2023-01-09T05:36:10;0.40;;;0.40;;
67595;SDS011;54410;48.694;8.934;2023-01-09T05:38:35;0.40;;;0.40;;
67595;SDS011;54410;48.694;8.934;2023-01-09T05:41:01;1.07;;;0.53;;
67595;SDS011;54410;48.694;8.934;2023-01-09T05:43:27;0.50;;;0.50;;
67595;SDS011;54410;48.694;8.934;2023-01-09T05:45:53;0.63;;;0.53;;
67595;SDS011;54410;48.694;8.934;2023-01-09T05:48:18;0.50;;;0.50;;
67595;SDS011;54410;48.694;8.934;2023-01-09T05:50:44;0.43;;;0.40;;
67595;SDS011;54410;48.694;8.934;2023-01-09T05:53:10;1.70;;;0.50;;
67595;SDS011;54410;48.694;8.934;2023-01-09T05:55:35;0.70;;;0.70;;
67595;SDS011;54410;48.694;8.934;2023-01-09T05:58:01;1.37;;;0.60;;
67595;SDS011;54410;48.694;8.934;2023-01-09T06:00:27;0.50;;;0.50;;
67595;SDS011;54410;48.694;8.934;2023-01-09T06:02:53;0.93;;;0.60;;
67595;SDS011;54410;48.694;8.934;2023-01-09T06:05:19;2.03;;;0.70;;
67595;SDS011;54410;48.694;8.934;2023-01-09T06:07:45;0.70;;;0.70;;
67595;SDS011;54410;48.694;8.934;2023-01-09T06:10:12;0.57;;;0.57;;
67595;SDS011;54410;48.694;8.934;2023-01-09T06:12:39;0.77;;;0.77;;
67595;SDS011;54410;48.694;8.934;2023-01-09T06:15:05;0.87;;;0.60;;
67595;SDS011;54410;48.694;8.934;2023-01-09T06:17:31;0.90;;;0.60;;
67595;SDS011;54410;48.694;8.934;2023-01-09T06:19:56;0.67;;;0.60;;
67595;SDS011;54410;48.694;8.934;2023-01-09T06:22:22;3.80;;;0.70;;
67595;SDS011;54410;48.694;8.934;2023-01-09T06:24:48;0.60;;;0.60;;
67595;SDS011;54410;48.694;8.934;2023-01-09T06:27:14;4.10;;;0.70;;
67595;SDS011;54410;48.694;8.934;2023-01-09T06:29:40;0.57;;;0.57;;
67595;SDS011;54410;48.694;8.934;2023-01-09T06:32:06;0.70;;;0.70;;
67595;SDS011;54410;48.694;8.934;2023-01-09T06:34:32;2.97;;;0.70;;
67595;SDS011;54410;48.694;8.934;2023-01-09T06:36:58;2.60;;;0.70;;
67595;SDS011;54410;48.694;8.934;2023-01-09T06:39:24;2.60;;;0.67;;
67595;SDS011;54410;48.694;8.934;2023-01-09T06:41:50;0.60;;;0.60;;
67595;SDS011;54410;48.694;8.934;2023-01-09T06:44:16;0.70;;;0.70;;
67595;SDS011;54410;48.694;8.934;2023-01-09T06:46:42;3.37;;;0.70;;
67595;SDS011;54410;48.694;8.934;2023-01-09T06:49:08;1.17;;;0.67;;
67595;SDS011;54410;48.694;8.934;2023-01-09T06:51:34;1.30;;;0.70;;
67595;SDS011;54410;48.694;8.934;2023-01-09T06:54:00;0.97;;;0.80;;
67595;SDS011;54410;48.694;8.934;2023-01-09T06:56:26;1.67;;;0.70;;
67595;SDS011;54410;48.694;8.934;2023-01-09T06:58:52;0.87;;;0.70;;
67595;SDS011;54410;48.694;8.934;2023-01-09T07:01:18;3.10;;;0.80;;
67595;SDS011;54410;48.694;8.934;2023-01-09T07:03:44;1.37;;;0.70;;
67595;SDS011;54410;48.694;8.934;2023-01-09T07:06:10;3.23;;;0.70;;
67595;SDS011;54410;48.694;8.934;2023-01-09T07:08:36;2.37;;;0.80;;
67595;SDS011;54410;48.694;8.934;2023-01-09T07:11:02;0.50;;;0.50;;
67595;SDS011;54410;48.694;8.934;2023-01-09T07:13:28;0.60;;;0.60;;
67595;SDS011;54410;48.694;8.934;2023-01-09T07:15:54;2.40;;;0.60;;
67595;SDS011;54410;48.694;8.934;2023-01-09T07:18:19;4.87;;;0.80;;
67595;SDS011;54410;48.694;8.934;2023-01-09T07:20:45;0.50;;;0.50;;
67595;SDS011;54410;48.694;8.934;2023-01-09T07:23:12;1.90;;;0.80;;
67595;SDS011;54410;48.694;8.934;2023-01-09T07:25:38;1.87;;;0.50;;
67595;SDS011;54410;48.694;8.934;2023-01-09T07:28:07;0.90;;;0.90;;
67595;SDS011;54410;48.694;8.934;2023-01-09T07:30:33;1.40;;;0.90;;
67595;SDS011;54410;48.694;8.934;2023-01-09T07:33:01;2.63;;;0.73;;
67595;SDS011;54410;48.694;8.934;2023-01-09T07:35:27;1.50;;;0.70;;
67595;SDS011;54410;48.694;8.934;2023-01-09T07:37:52;3.50;;;0.60;;
67595;SDS011;54410;48.694;8.934;2023-01-09T07:40:18;2.30;;;0.67;;
67595;SDS011;54410;48.694;8.934;2023-01-09T07:42:44;0.60;;;0.60;;
67595;SDS011;54410;48.694;8.934;2023-01-09T07:45:10;2.23;;;0.90;;
67595;SDS011;54410;48.694;8.934;2023-01-09T07:47:37;2.97;;;0.90;;
67595;SDS011;54410;48.694;8.934;2023-01-09T07:50:04;1.93;;;0.70;;
67595;SDS011;54410;48.694;8.934;2023-01-09T07:52:30;2.40;;;0.80;;
67595;SDS011;54410;48.694;8.934;2023-01-09T07:54:56;2.20;;;0.90;;
67595;SDS011;54410;48.694;8.934;2023-01-09T07:57:22;0.60;;;0.50;;
67595;SDS011;54410;48.694;8.934;2023-01-09T07:59:47;1.07;;;0.70;;
67595;SDS011;54410;48.694;8.934;2023-01-09T08:02:13;1.83;;;0.90;;
67595;SDS011;54410;48.694;8.934;2023-01-09T08:04:39;1.27;;;0.77;;
67595;SDS011;54410;48.694;8.934;2023-01-09T08:07:05;1.97;;;0.80;;
67595;SDS011;54410;48.694;8.934;2023-01-09T08:09:31;0.73;;;0.70;;
67595;SDS011;54410;48.694;8.934;2023-01-09T08:11:57;1.23;;;1.03;;
67595;SDS011;54410;48.694;8.934;2023-01-09T08:14:23;5.40;;;0.93;;
67595;SDS011;54410;48.694;8.934;2023-01-09T08:16:49;0.63;;;0.63;;
67595;SDS011;54410;48.694;8.934;2023-01-09T08:19:15;2.00;;;0.77;;
67595;SDS011;54410;48.694;8.934;2023-01-09T08:21:41;5.17;;;0.77;;
67595;SDS011;54410;48.694;8.934;2023-01-09T08:24:08;0.50;;;0.50;;
67595;SDS011;54410;48.694;8.934;2023-01-09T08:26:33;0.97;;;0.60;;
67595;SDS011;54410;48.694;8.934;2023-01-09T08:28:59;3.10;;;1.00;;
67595;SDS011;54410;48.694;8.934;2023-01-09T08:31:25;2.53;;;0.90;;
67595;SDS011;54410;48.694;8.934;2023-01-09T08:33:51;1.83;;;1.20;;
67595;SDS011;54410;48.694;8.934;2023-01-09T08:36:17;1.80;;;1.00;;
67595;SDS011;54410;48.694;8.934;2023-01-09T08:38:43;0.80;;;0.80;;
67595;SDS011;54410;48.694;8.934;2023-01-09T08:41:09;1.93;;;0.77;;
67595;SDS011;54410;48.694;8.934;2023-01-09T08:43:53;4.83;;;0.70;;
67595;SDS011;54410;48.694;8.934;2023-01-09T08:46:38;2.70;;;0.87;;
67595;SDS011;54410;48.694;8.934;2023-01-09T08:49:22;1.23;;;0.93;;
67595;SDS011;54410;48.694;8.934;2023-01-09T08:51:48;2.77;;;1.13;;
67595;SDS011;54410;48.694;8.934;2023-01-09T08:54:14;4.07;;;1.33;;
67595;SDS011;54410;48.694;8.934;2023-01-09T08:56:40;3.93;;;2.10;;
67595;SDS011;54410;48.694;8.934;2023-01-09T08:59:06;4.10;;;1.40;;
67595;SDS011;54410;48.694;8.934;2023-01-09T09:01:32;5.97;;;1.93;;
67595;SDS011;54410;48.694;8.934;2023-01-09T09:04:00;4.40;;;1.57;;
67595;SDS011;54410;48.694;8.934;2023-01-09T09:06:25;5.73;;;2.17;;
67595;SDS011;54410;48.694;8.934;2023-01-09T09:08:51;3.97;;;1.83;;
67595;SDS011;54410;48.694;8.934;2023-01-09T09:11:17;3.80;;;1.77;;
67595;SDS011;54410;48.694;8.934;2023-01-09T09:13:43;3.57;;;1.57;;
67595;SDS011;54410;48.694;8.934;2023-01-09T09:16:09;2.43;;;1.60;;
67595;SDS011;54410;48.694;8.934;2023-01-09T09:18:35;5.13;;;1.83;;
67595;SDS011;54410;48.694;8.934;2023-01-09T09:21:01;4.83;;;2.03;;
67595;SDS011;54410;48.694;8.934;2023-01-09T09:23:27;3.93;;;1.37;;
67595;SDS011;54410;48.694;8.934;2023-01-09T09:25:53;4.80;;;1.53;;
67595;SDS011;54410;48.694;8.934;2023-01-09T09:28:19;2.97;;;1.27;;
67595;SDS011;54410;48.694;8.934;2023-01-09T09:30:44;4.73;;;1.40;;
67595;SDS011;54410;48.694;8.934;2023-01-09T09:33:10;2.33;;;1.40;;
67595;SDS011;54410;48.694;8.934;2023-01-09T09:35:36;3.13;;;1.33;;
67595;SDS011;54410;48.694;8.934;2023-01-09T09:38:03;2.00;;;0.90;;
67595;SDS011;54410;48.694;8.934;2023-01-09T09:43:42;0.87;;;0.77;;
67595;SDS011;54410;48.694;8.934;2023-01-09T09:46:48;2.87;;;1.37;;
67595;SDS011;54410;48.694;8.934;2023-01-09T09:48:51;2.80;;;1.53;;
67595;SDS011;54410;48.694;8.934;2023-01-09T09:54:26;4.47;;;1.10;;
67595;SDS011;54410;48.694;8.934;2023-01-09T09:56:55;4.10;;;1.00;;
67595;SDS011;54410;48.694;8.934;2023-01-09T09:59:23;2.53;;;1.10;;
67595;SDS011;54410;48.694;8.934;2023-01-09T10:01:55;1.83;;;1.00;;
67595;SDS011;54410;48.694;8.934;2023-01-09T10:04:22;3.40;;;1.13;;
67595;SDS011;54410;48.694;8.934;2023-01-09T10:06:51;2.23;;;1.10;;
67595;SDS011;54410;48.694;8.934;2023-01-09T10:14:35;2.13;;;1.10;;
67595;SDS011;54410;48.694;8.934;2023-01-09T10:17:08;1.57;;;0.90;;
67595;SDS011;54410;48.694;8.934;2023-01-09T10:24:56;2.27;;;0.80;;
67595;SDS011;54410;48.694;8.934;2023-01-09T10:32:44;3.43;;;1.40;;
67595;SDS011;54410;48.694;8.934;2023-01-09T10:35:13;2.13;;;1.00;;
67595;SDS011;54410;48.694;8.934;2023-01-09T10:37:44;3.60;;;1.40;;
67595;SDS011;54410;48.694;8.934;2023-01-09T10:42:43;1.33;;;1.10;;
67595;SDS011;54410;48.694;8.934;2023-01-09T10:47:46;5.70;;;1.10;;
67595;SDS011;54410;48.694;8.934;2023-01-09T10:50:20;3.07;;;1.03;;
67595;SDS011;54410;48.694;8.934;2023-01-09T10:52:48;3.60;;;0.83;;
67595;SDS011;54410;48.694;8.934;2023-01-09T10:55:20;1.13;;;0.70;;
67595;SDS011;54410;48.694;8.934;2023-01-09T10:57:50;3.03;;;1.00;;
67595;SDS011;54410;48.694;8.934;2023-01-09T11:00:19;2.17;;;0.97;;
67595;SDS011;54410;48.694;8.934;2023-01-09T11:02:45;2.40;;;0.90;;
67595;SDS011;54410;48.694;8.934;2023-01-09T11:05:16;3.07;;;2.00;;
67595;SDS011;54410;48.694;8.934;2023-01-09T11:07:44;3.70;;;1.40;;
67595;SDS011;54410;48.694;8.934;2023-01-09T11:10:12;1.13;;;0.60;;
67595;SDS011;54410;48.694;8.934;2023-01-09T11:12:38;2.57;;;1.07;;
67595;SDS011;54410;48.694;8.934;2023-01-09T11:17:49;2.10;;;0.90;;
67595;SDS011;54410;48.694;8.934;2023-01-09T11:22:45;2.70;;;0.93;;
67595;SDS011;54410;48.694;8.934;2023-01-09T11:25:19;4.22;;;1.33;;
67595;SDS011;54410;48.694;8.934;2023-01-09T11:30:27;3.63;;;1.10;;
67595;SDS011;54410;48.694;8.934;2023-01-09T11:32:54;2.85;;;0.95;;
67595;SDS011;54410;48.694;8.934;2023-01-09T11:35:24;5.47;;;1.20;;
67595;SDS011;54410;48.694;8.934;2023-01-09T11:40:28;3.53;;;0.70;;
67595;SDS011;54410;48.694;8.934;2023-01-09T11:43:00;2.30;;;0.70;;
67595;SDS011;54410;48.694;8.934;2023-01-09T11:45:30;2.40;;;0.83;;
67595;SDS011;54410;48.694;8.934;2023-01-09T11:47:57;2.53;;;1.00;;
67595;SDS011;54410;48.694;8.934;2023-01-09T11:50:27;2.47;;;1.05;;
67595;SDS011;54410;48.694;8.934;2023-01-09T11:53:13;2.58;;;1.00;;
67595;SDS011;54410;48.694;8.934;2023-01-09T11:55:40;5.45;;;1.20;;
67595;SDS011;54410;48.694;8.934;2023-01-09T11:58:17;2.28;;;0.95;;
67595;SDS011;54410;48.694;8.934;2023-01-09T12:00:59;2.97;;;0.85;;
67595;SDS011;54410;48.694;8.934;2023-01-09T12:13:54;0.40;;;0.40;;
67595;SDS011;54410;48.694;8.934;2023-01-09T12:19:25;3.97;;;1.50;;
67595;SDS011;54410;48.694;8.934;2023-01-09T12:24:38;4.07;;;2.42;;
67595;SDS011;54410;48.694;8.934;2023-01-09T12:29:48;2.95;;;0.88;;
67595;SDS011;54410;48.694;8.934;2023-01-09T12:42:59;3.95;;;1.02;;
67595;SDS011;54410;48.694;8.934;2023-01-09T12:58:29;2.80;;;1.48;;
67595;SDS011;54410;48.694;8.934;2023-01-09T13:00:56;2.03;;;0.95;;
67595;SDS011;54410;48.694;8.934;2023-01-09T13:03:25;3.70;;;1.48;;
67595;SDS011;54410;48.694;8.934;2023-01-09T13:05:52;2.80;;;0.98;;
67595;SDS011;54410;48.694;8.934;2023-01-09T13:10:51;2.90;;;1.50;;
67595;SDS011;54410;48.694;8.934;2023-01-09T13:13:23;2.80;;;0.67;;
67595;SDS011;54410;48.694;8.934;2023-01-09T13:15:53;1.23;;;0.60;;
67595;SDS011;54410;48.694;8.934;2023-01-09T13:18:24;1.07;;;0.60;;
67595;SDS011;54410;48.694;8.934;2023-01-09T13:20:53;2.67;;;0.50;;
67595;SDS011;54410;48.694;8.934;2023-01-09T13:26:06;1.93;;;0.50;;
67595;SDS011;54410;48.694;8.934;2023-01-09T13:28:38;0.97;;;0.60;;
67595;SDS011;54410;48.694;8.934;2023-01-09T13:31:14;3.00;;;1.00;;
67595;SDS011;54410;48.694;8.934;2023-01-09T13:33:44;3.33;;;0.90;;
67595;SDS011;54410;48.694;8.934;2023-01-09T13:36:27;4.23;;;1.77;;
67595;SDS011;54410;48.694;8.934;2023-01-09T13:38:54;2.63;;;1.07;;
67595;SDS011;54410;48.694;8.934;2023-01-09T13:41:21;1.77;;;0.83;;
67595;SDS011;54410;48.694;8.934;2023-01-09T13:46:45;2.20;;;0.80;;
67595;SDS011;54410;48.694;8.934;2023-01-09T13:54:58;1.30;;;0.40;;
67595;SDS011;54410;48.694;8.934;2023-01-09T13:57:26;1.60;;;0.40;;
67595;SDS011;54410;48.694;8.934;2023-01-09T13:59:52;0.40;;;0.40;;
67595;SDS011;54410;48.694;8.934;2023-01-09T14:05:10;0.50;;;0.50;;
67595;SDS011;54410;48.694;8.934;2023-01-09T14:10:52;1.10;;;0.90;;
67595;SDS011;54410;48.694;8.934;2023-01-09T14:12:52;1.10;;;1.00;;
67595;SDS011;54410;48.694;8.934;2023-01-09T14:15:28;0.80;;;0.80;;
67595;SDS011;54410;48.694;8.934;2023-01-09T14:17:59;1.63;;;0.77;;
67595;SDS011;54410;48.694;8.934;2023-01-09T14:20:27;1.90;;;0.70;;
67595;SDS011;54410;48.694;8.934;2023-01-09T14:22:58;1.23;;;0.73;;
67595;SDS011;54410;48.694;8.934;2023-01-09T14:25:25;0.83;;;0.70;;
67595;SDS011;54410;48.694;8.934;2023-01-09T14:33:01;1.13;;;0.50;;
67595;SDS011;54410;48.694;8.934;2023-01-09T14:35:36;2.07;;;0.60;;
67595;SDS011;54410;48.694;8.934;2023-01-09T14:38:05;1.10;;;0.70;;
67595;SDS011;54410;48.694;8.934;2023-01-09T14:40:31;0.60;;;0.60;;
67595;SDS011;54410;48.694;8.934;2023-01-09T14:43:01;1.27;;;0.70;;
67595;SDS011;54410;48.694;8.934;2023-01-09T14:45:29;1.53;;;0.60;;
67595;SDS011;54410;48.694;8.934;2023-01-09T14:47:59;0.43;;;0.40;;
67595;SDS011;54410;48.694;8.934;2023-01-09T14:50:29;0.63;;;0.50;;
67595;SDS011;54410;48.694;8.934;2023-01-09T14:55:41;1.37;;;0.50;;
67595;SDS011;54410;48.694;8.934;2023-01-09T15:00:59;0.40;;;0.40;;
67595;SDS011;54410;48.694;8.934;2023-01-09T15:03:28;0.60;;;0.60;;
67595;SDS011;54410;48.694;8.934;2023-01-09T15:05:54;0.50;;;0.50;;
67595;SDS011;54410;48.694;8.934;2023-01-09T15:08:22;2.27;;;0.50;;
67595;SDS011;54410;48.694;8.934;2023-01-09T15:10:49;2.60;;;0.60;;
67595;SDS011;54410;48.694;8.934;2023-01-09T15:13:27;0.60;;;0.60;;
67595;SDS011;54410;48.694;8.934;2023-01-09T15:15:53;0.40;;;0.40;;
67595;SDS011;54410;48.694;8.934;2023-01-09T15:18:21;2.70;;;0.70;;
67595;SDS011;54410;48.694;8.934;2023-01-09T15:20:52;1.90;;;0.60;;
67595;SDS011;54410;48.694;8.934;2023-01-09T15:23:23;1.47;;;1.20;;
67595;SDS011;54410;48.694;8.934;2023-01-09T15:25:49;0.50;;;0.50;;
67595;SDS011;54410;48.694;8.934;2023-01-09T15:28:28;1.37;;;0.77;;
67595;SDS011;54410;48.694;8.934;2023-01-09T15:31:00;0.70;;;0.70;;
67595;SDS011;54410;48.694;8.934;2023-01-09T15:33:27;0.67;;;0.50;;
67595;SDS011;54410;48.694;8.934;2023-01-09T15:35:53;0.50;;;0.50;;
67595;SDS011;54410;48.694;8.934;2023-01-09T15:38:24;1.93;;;1.00;;
67595;SDS011;54410;48.694;8.934;2023-01-09T15:40:51;4.60;;;2.50;;
67595;SDS011;54410;48.694;8.934;2023-01-09T15:43:18;4.13;;;1.80;;
67595;SDS011;54410;48.694;8.934;2023-01-09T15:45:44;0.90;;;0.63;;
67595;SDS011;54410;48.694;8.934;2023-01-09T15:50:40;5.10;;;2.77;;
67595;SDS011;54410;48.694;8.934;2023-01-09T15:53:12;3.10;;;1.60;;
67595;SDS011;54410;48.694;8.934;2023-01-09T15:55:39;3.53;;;1.70;;
67595;SDS011;54410;48.694;8.934;2023-01-09T15:58:23;2.47;;;1.20;;
67595;SDS011;54410;48.694;8.934;2023-01-09T16:03:36;8.57;;;3.27;;
67595;SDS011;54410;48.694;8.934;2023-01-09T16:06:06;2.57;;;1.30;;
67595;SDS011;54410;48.694;8.934;2023-01-09T16:11:03;2.60;;;1.77;;
67595;SDS011;54410;48.694;8.934;2023-01-09T16:13:30;6.03;;;2.70;;
67595;SDS011;54410;48.694;8.934;2023-01-09T16:15:57;4.77;;;2.13;;
67595;SDS011;54410;48.694;8.934;2023-01-09T16:18:34;5.23;;;1.90;;
67595;SDS011;54410;48.694;8.934;2023-01-09T16:21:15;7.20;;;5.33;;
67595;SDS011;54410;48.694;8.934;2023-01-09T16:23:49;8.53;;;4.87;;
67595;SDS011;54410;48.694;8.934;2023-01-09T16:26:19;5.13;;;2.63;;
67595;SDS011;54410;48.694;8.934;2023-01-09T16:28:45;1.83;;;1.40;;
67595;SDS011;54410;48.694;8.934;2023-01-09T16:31:22;2.40;;;0.80;;
67595;SDS011;54410;48.694;8.934;2023-01-09T16:34:23;2.10;;;1.50;;
67595;SDS011;54410;48.694;8.934;2023-01-09T16:36:42;6.93;;;2.30;;
67595;SDS011;54410;48.694;8.934;2023-01-09T16:39:11;1.53;;;0.80;;
67595;SDS011;54410;48.694;8.934;2023-01-09T16:41:41;1.30;;;0.97;;
67595;SDS011;54410;48.694;8.934;2023-01-09T16:44:25;1.57;;;1.47;;
67595;SDS011;54410;48.694;8.934;2023-01-09T16:46:51;2.10;;;1.43;;
67595;SDS011;54410;48.694;8.934;2023-01-09T16:49:19;2.77;;;1.40;;
67595;SDS011;54410;48.694;8.934;2023-01-09T16:51:46;1.03;;;0.93;;
67595;SDS011;54410;48.694;8.934;2023-01-09T16:54:13;8.20;;;6.40;;
67595;SDS011;54410;48.694;8.934;2023-01-09T16:56:39;4.13;;;2.20;;
67595;SDS011;54410;48.694;8.934;2023-01-09T16:59:12;3.80;;;1.73;;
67595;SDS011;54410;48.694;8.934;2023-01-09T17:01:39;1.60;;;1.50;;
67595;SDS011;54410;48.694;8.934;2023-01-09T17:04:11;1.57;;;1.37;;
67595;SDS011;54410;48.694;8.934;2023-01-09T17:06:38;3.27;;;1.90;;
67595;SDS011;54410;48.694;8.934;2023-01-09T17:09:05;1.60;;;1.40;;
67595;SDS011;54410;48.694;8.934;2023-01-09T17:11:31;1.20;;;0.90;;
67595;SDS011;54410;48.694;8.934;2023-01-09T17:13:57;2.47;;;1.47;;
67595;SDS011;54410;48.694;8.934;2023-01-09T17:16:23;0.70;;;0.70;;
67595;SDS011;54410;48.694;8.934;2023-01-09T17:18:50;1.87;;;1.10;;
67595;SDS011;54410;48.694;8.934;2023-01-09T17:21:19;2.40;;;1.30;;
67595;SDS011;54410;48.694;8.934;2023-01-09T17:23:46;1.83;;;1.30;;
67595;SDS011;54410;48.694;8.934;2023-01-09T17:26:16;2.50;;;1.50;;